Time;durP1;ratioP1;P1;durP2;ratioP2;P2;SDS_P1;SDS_P2;PMS_P1;PMS_P2;Temp;Humidity;BMP_temperature;BMP_pressure;BME280_temperature;BME280_humidity;BME280_pressure;Samples;Min_cycle;Max_cycle;Signal;HPM_P1;HPM_P2
2022/02/22 00:01:44;;;;;;;49.63;28.23;;;;;;;6.41;74.38;93205.59;1677965;84;21054;-55
2022/02/22 00:04:11;;;;;;;38.60;25.00;;;;;;;6.32;74.58;93210.46;1646418;85;21066;-55
2022/02/22 00:06:37;;;;;;;43.30;26.00;;;;;;;6.30;74.74;93214.88;1653341;85;21131;-55
2022/02/22 00:09:04;;;;;;;39.05;25.37;;;;;;;6.27;74.71;93213.81;1650284;85;20964;-56
2022/02/22 00:11:33;;;;;;;41.00;22.98;;;;;;;6.24;74.57;93212.00;1669423;85;21872;-56
2022/02/22 00:13:59;;;;;;;36.60;23.25;;;;;;;6.22;74.70;93208.20;1667426;85;21464;-56
2022/02/22 00:16:28;;;;;;;33.95;22.58;;;;;;;6.22;74.73;93206.23;1649939;84;21089;-56
2022/02/22 00:18:55;;;;;;;32.17;23.15;;;;;;;6.25;74.56;93203.95;1646385;83;21122;-55
2022/02/22 00:21:21;;;;;;;36.00;22.55;;;;;;;6.28;74.72;93200.91;1674177;83;21133;-56
2022/02/22 00:23:48;;;;;;;40.12;21.10;;;;;;;6.33;74.70;93206.52;1668063;85;21148;-55
2022/02/22 00:26:15;;;;;;;34.45;21.15;;;;;;;6.38;74.52;93199.69;1640275;85;21050;-55
2022/02/22 00:28:41;;;;;;;38.73;20.97;;;;;;;6.40;74.45;93194.52;1622025;87;21569;-56
2022/02/22 00:31:08;;;;;;;38.92;21.17;;;;;;;6.44;74.06;93199.21;1662537;85;21238;-55
2022/02/22 00:33:35;;;;;;;35.35;18.60;;;;;;;6.43;73.77;93204.53;1669942;84;21121;-55
2022/02/22 00:36:02;;;;;;;29.50;17.25;;;;;;;6.41;73.59;93204.23;1675505;85;21843;-56
2022/02/22 00:38:29;;;;;;;23.30;15.28;;;;;;;6.34;73.63;93207.28;1677750;85;21117;-56
2022/02/22 00:40:55;;;;;;;27.35;17.73;;;;;;;6.26;73.58;93201.97;1673496;85;21472;-55
2022/02/22 00:43:21;;;;;;;26.97;17.20;;;;;;;6.23;74.10;93198.79;1672253;85;21016;-55
2022/02/22 00:45:48;;;;;;;26.30;18.25;;;;;;;6.21;73.84;93191.66;1683984;85;21116;-55
2022/02/22 00:48:15;;;;;;;25.88;17.48;;;;;;;6.22;74.36;93195.91;1675694;85;21109;-55
2022/02/22 00:50:41;;;;;;;23.90;16.17;;;;;;;6.32;74.51;93188.62;1655814;84;21047;-55
2022/02/22 00:53:08;;;;;;;22.30;14.25;;;;;;;6.45;73.74;93183.75;1625469;84;21294;-55
2022/02/22 00:55:35;;;;;;;19.70;14.80;;;;;;;6.42;73.27;93183.89;1676216;84;21017;-56
2022/02/22 00:58:02;;;;;;;22.52;15.30;;;;;;;6.34;73.43;93179.98;1653443;84;21047;-56
2022/02/22 01:00:29;;;;;;;21.33;14.85;;;;;;;6.28;73.49;93177.09;1676193;84;21581;-55
2022/02/22 01:02:56;;;;;;;26.57;17.98;;;;;;;6.21;73.46;93177.42;1681434;85;21054;-56
2022/02/22 01:05:24;;;;;;;30.82;19.95;;;;;;;6.14;73.64;93182.43;1676345;85;21042;-56
2022/02/22 01:07:51;;;;;;;24.77;15.43;;;;;;;6.04;73.75;93183.05;1618814;86;20991;-55
2022/02/22 01:10:17;;;;;;;20.10;13.45;;;;;;;5.94;74.01;93184.88;1606287;87;21002;-55
2022/02/22 01:12:44;;;;;;;14.05;11.40;;;;;;;5.88;74.26;93189.40;1672365;85;21786;-56
2022/02/22 01:15:10;;;;;;;16.00;11.40;;;;;;;5.86;74.54;93193.96;1652879;86;21032;-57
2022/02/22 01:17:39;;;;;;;13.08;9.95;;;;;;;5.91;75.14;93196.67;1652385;85;21051;-59
2022/02/22 01:20:08;;;;;;;16.48;10.88;;;;;;;6.08;75.12;93195.92;1677859;85;21039;-55
2022/02/22 01:22:36;;;;;;;15.75;10.28;;;;;;;6.25;74.60;93208.05;1675153;85;20995;-56
2022/02/22 01:25:05;;;;;;;22.48;13.18;;;;;;;6.30;73.81;93204.70;1675584;85;21191;-57
2022/02/22 01:27:33;;;;;;;28.17;16.17;;;;;;;6.29;73.55;93203.78;1673943;85;21070;-58
2022/02/22 01:30:00;;;;;;;36.08;19.20;;;;;;;6.29;73.55;93203.19;1673415;85;21054;-55
2022/02/22 01:32:27;;;;;;;36.13;20.00;;;;;;;6.30;73.62;93208.05;1674268;85;20988;-55
2022/02/22 01:34:53;;;;;;;26.10;17.15;;;;;;;6.31;73.42;93201.38;1681247;85;20995;-56
2022/02/22 01:37:19;;;;;;;32.33;18.12;;;;;;;6.31;73.55;93202.12;1682417;85;21130;-55
2022/02/22 01:39:46;;;;;;;31.68;18.42;;;;;;;6.37;73.38;93209.09;1672607;85;21001;-56
2022/02/22 01:42:12;;;;;;;29.52;18.87;;;;;;;6.39;73.08;93209.39;1657310;85;21104;-56
2022/02/22 01:44:39;;;;;;;34.63;19.12;;;;;;;6.37;72.78;93205.00;1619611;87;21006;-55
2022/02/22 01:47:07;;;;;;;26.62;16.77;;;;;;;6.30;72.67;93202.59;1619211;88;21006;-56
2022/02/22 01:49:34;;;;;;;24.30;15.40;;;;;;;6.22;72.98;93203.51;1658466;85;21170;-55
2022/02/22 01:52:02;;;;;;;21.37;14.58;;;;;;;6.20;72.94;93204.58;1674224;85;22018;-55
2022/02/22 01:54:29;;;;;;;23.50;15.90;;;;;;;6.13;73.11;93206.85;1670136;85;21062;-57
2022/02/22 01:56:55;;;;;;;22.58;15.98;;;;;;;6.17;73.75;93201.98;1641245;83;21082;-55
2022/02/22 01:59:22;;;;;;;32.28;19.42;;;;;;;6.26;73.41;93202.73;1643818;85;21243;-56
2022/02/22 02:01:49;;;;;;;28.07;18.77;;;;;;;6.23;72.99;93209.71;1619115;86;21149;-54
2022/02/22 02:04:16;;;;;;;26.37;17.92;;;;;;;6.17;73.22;93208.81;1640083;86;21503;-56
2022/02/22 02:06:43;;;;;;;21.17;14.28;;;;;;;6.11;73.32;93205.93;1592387;87;21153;-56
2022/02/22 02:09:11;;;;;;;24.57;15.00;;;;;;;6.12;73.22;93210.80;1668684;84;21043;-55
2022/02/22 02:11:55;;;;;;;20.30;14.07;;;;;;;6.09;73.64;93207.00;1671813;83;21059;-56
2022/02/22 02:14:24;;;;;;;19.77;13.10;;;;;;;6.22;73.77;93211.70;1681856;84;21062;-56
2022/02/22 02:16:52;;;;;;;21.40;14.28;;;;;;;6.37;73.51;93207.73;1679581;84;21082;-56
2022/02/22 02:19:19;;;;;;;27.65;16.77;;;;;;;6.47;72.84;93218.78;1672120;85;21050;-55
2022/02/22 02:21:47;;;;;;;27.45;16.17;;;;;;;6.46;72.78;93218.63;1655542;85;20944;-55
2022/02/22 02:24:18;;;;;;;26.00;15.83;;;;;;;6.47;72.43;93220.14;1674713;83;21046;-56
2022/02/22 02:26:45;;;;;;;50.80;29.52;;;;;;;6.40;72.52;93224.56;1676116;83;21878;-55
2022/02/22 02:29:15;;;;;;;51.30;29.02;;;;;;;6.42;72.94;93220.77;1661767;83;21535;-55
2022/02/22 02:31:43;;;;;;;43.42;26.07;;;;;;;6.51;72.79;93219.41;1667441;84;21096;-56
2022/02/22 02:34:13;;;;;;;41.05;25.27;;;;;;;6.50;72.29;93224.72;1667261;84;21178;-56
2022/02/22 02:36:40;;;;;;;42.03;22.58;;;;;;;6.38;72.05;93235.19;1668971;85;21063;-56
2022/02/22 02:39:08;;;;;;;36.85;22.73;;;;;;;6.21;72.34;93235.34;1661406;84;21076;-55
2022/02/22 02:41:35;;;;;;;35.35;21.65;;;;;;;6.08;72.69;93238.83;1657136;85;21130;-56
2022/02/22 02:44:09;;;;;;;28.52;19.25;;;;;;;5.99;72.96;93238.84;1677209;83;21030;-56
2022/02/22 02:46:38;;;;;;;26.00;16.02;;;;;;;5.92;73.51;93250.03;1672904;83;21192;-55
2022/02/22 02:49:06;;;;;;;25.15;15.43;;;;;;;5.89;73.44;93257.17;1684930;84;21098;-56
2022/02/22 02:51:35;;;;;;;26.50;15.43;;;;;;;5.80;73.59;93259.88;1670895;85;21010;-56
2022/02/22 02:54:02;;;;;;;28.32;16.23;;;;;;;5.84;74.29;93262.47;1663409;83;21528;-55
2022/02/22 02:56:29;;;;;;;31.87;17.07;;;;;;;5.92;73.83;93265.81;1660591;83;21077;-56
2022/02/22 02:58:59;;;;;;;25.40;16.30;;;;;;;5.90;73.72;93266.88;1660186;85;20982;-56
2022/02/22 03:01:27;;;;;;;20.80;14.47;;;;;;;5.91;74.10;93265.66;1670123;83;21003;-57
2022/02/22 03:03:54;;;;;;;19.37;14.38;;;;;;;5.92;74.09;93265.81;1668849;85;21221;-56
2022/02/22 03:06:21;;;;;;;18.82;13.48;;;;;;;5.96;73.94;93267.04;1678805;84;21478;-55
2022/02/22 03:08:48;;;;;;;21.07;13.90;;;;;;;5.90;73.75;93266.88;1672189;85;21497;-56
2022/02/22 03:11:15;;;;;;;24.60;14.40;;;;;;;5.88;73.94;93271.26;1669055;85;21081;-55
2022/02/22 03:13:42;;;;;;;27.52;16.10;;;;;;;5.85;73.83;93271.58;1678209;84;21027;-57
2022/02/22 03:16:09;;;;;;;25.88;16.50;;;;;;;5.85;74.14;93276.27;1677914;84;21227;-56
2022/02/22 03:18:36;;;;;;;27.60;16.50;;;;;;;5.93;74.44;93272.05;1678991;84;21195;-56
2022/02/22 03:21:04;;;;;;;26.17;14.73;;;;;;;6.07;74.19;93278.26;1668422;85;21006;-55
2022/02/22 03:23:31;;;;;;;29.05;15.93;;;;;;;6.14;74.17;93279.34;1673052;85;21062;-56
2022/02/22 03:25:58;;;;;;;38.92;22.90;;;;;;;6.28;74.12;93278.13;1678327;84;21124;-55
2022/02/22 03:28:24;;;;;;;59.45;25.37;;;;;;;6.38;73.21;93282.98;1656954;85;21173;-56
2022/02/22 03:30:51;;;;;;;53.52;24.20;;;;;;;6.34;73.14;93284.48;1671480;84;21022;-56
2022/02/22 03:33:18;;;;;;;51.68;24.95;;;;;;;6.34;72.78;93285.85;1670728;85;20968;-56
2022/02/22 03:35:44;;;;;;;36.17;21.57;;;;;;;6.34;72.87;93287.84;1655589;84;21495;-56
2022/02/22 03:38:11;;;;;;;43.15;22.65;;;;;;;6.35;72.60;93285.27;1650489;85;21047;-56
2022/02/22 03:40:38;;;;;;;55.88;31.02;;;;;;;6.34;72.96;93294.67;1644178;86;21879;-56
2022/02/22 03:43:05;;;;;;;61.25;32.08;;;;;;;6.38;72.84;93291.95;1688006;83;20975;-55
2022/02/22 03:45:31;;;;;;;44.38;26.90;;;;;;;6.35;72.48;93288.73;1663260;85;21041;-55
2022/02/22 03:47:58;;;;;;;47.85;25.70;;;;;;;6.28;72.41;93289.64;1667592;83;21040;-55
2022/02/22 03:50:25;;;;;;;39.35;22.70;;;;;;;6.13;72.51;93291.48;1684315;83;21467;-55
2022/02/22 03:52:53;;;;;;;36.00;21.62;;;;;;;6.08;73.39;93279.77;1661942;85;20951;-56
2022/02/22 03:55:20;;;;;;;43.25;25.25;;;;;;;6.13;73.07;93281.92;1659508;85;21063;-56
2022/02/22 03:57:47;;;;;;;52.33;31.95;;;;;;;6.16;73.37;93287.83;1673857;84;21087;-55
2022/02/22 04:00:18;;;;;;;41.65;28.35;;;;;;;6.29;73.31;93287.06;1671052;85;21137;-56
2022/02/22 04:02:45;;;;;;;36.05;24.65;;;;;;;6.37;72.75;93290.41;1667181;85;21118;-55
2022/02/22 04:05:12;;;;;;;37.98;24.82;;;;;;;6.32;72.42;93293.00;1681944;85;21183;-57
2022/02/22 04:07:38;;;;;;;36.73;22.95;;;;;;;6.29;72.97;93289.80;1671835;83;21122;-57
2022/02/22 04:10:07;;;;;;;30.90;22.52;;;;;;;6.36;72.78;93282.06;1674080;83;21145;-55
2022/02/22 04:12:35;;;;;;;29.92;21.15;;;;;;;6.41;72.49;93292.98;1669439;85;21008;-56
2022/02/22 04:15:05;;;;;;;24.98;17.27;;;;;;;6.41;72.31;93286.94;1665049;83;20958;-56
2022/02/22 04:17:32;;;;;;;28.73;21.35;;;;;;;6.37;71.81;93289.03;1670191;84;21529;-56
2022/02/22 04:19:59;;;;;;;37.23;24.02;;;;;;;6.30;71.62;93295.44;1678613;84;21667;-57
2022/02/22 04:22:27;;;;;;;60.48;34.00;;;;;;;6.19;71.85;93301.94;1662530;85;20988;-55
2022/02/22 04:24:54;;;;;;;64.77;39.53;;;;;;;6.11;72.04;93308.89;1669601;83;21507;-56
2022/02/22 04:27:20;;;;;;;37.03;25.97;;;;;;;6.02;72.37;93311.63;1664922;85;21022;-55
2022/02/22 04:29:46;;;;;;;38.13;23.65;;;;;;;5.92;72.64;93312.80;1660102;85;21130;-57
2022/02/22 04:32:14;;;;;;;42.70;25.60;;;;;;;5.89;72.96;93302.79;1671559;85;21010;-57
2022/02/22 04:34:40;;;;;;;37.13;23.18;;;;;;;5.84;73.08;93314.31;1667204;85;21236;-56
2022/02/22 04:37:12;;;;;;;87.33;41.18;;;;;;;5.77;72.99;93311.84;1675176;83;20989;-55
2022/02/22 04:39:35;;;;;;;71.30;35.88;;;;;;;5.69;73.19;93318.78;1670785;84;21082;-57
2022/02/22 04:42:03;;;;;;;35.85;22.73;;;;;;;5.62;73.31;93321.18;1662694;85;21738;-56
2022/02/22 04:44:30;;;;;;;39.50;23.77;;;;;;;5.57;73.54;93321.03;1667214;85;21027;-56
2022/02/22 04:46:56;;;;;;;45.75;25.88;;;;;;;5.56;73.75;93326.31;1666577;84;21447;-56
2022/02/22 04:49:23;;;;;;;72.65;35.68;;;;;;;5.48;73.84;93329.94;1679268;84;21078;-56
2022/02/22 04:51:49;;;;;;;64.75;34.78;;;;;;;5.44;74.36;93327.19;1655449;85;21027;-56
2022/02/22 04:54:16;;;;;;;59.85;31.23;;;;;;;5.41;74.27;93335.65;1680981;84;21774;-56
2022/02/22 04:56:43;;;;;;;75.20;35.60;;;;;;;5.37;74.36;93329.58;1652374;85;21055;-57
2022/02/22 04:59:11;;;;;;;74.37;39.78;;;;;;;5.35;74.49;93344.86;1674074;83;21642;-58
2022/02/22 05:01:38;;;;;;;67.95;38.73;;;;;;;5.31;74.69;93339.56;1682888;83;20975;-58
2022/02/22 05:04:05;;;;;;;66.87;37.83;;;;;;;5.30;74.86;93338.05;1678145;83;21487;-58
2022/02/22 05:06:33;;;;;;;64.05;37.30;;;;;;;5.33;75.15;93340.45;1674199;84;21154;-57
2022/02/22 05:08:59;;;;;;;47.75;30.43;;;;;;;5.41;75.29;93340.36;1655729;85;21070;-57
2022/02/22 05:11:26;;;;;;;46.60;28.60;;;;;;;5.49;75.25;93347.05;1682083;84;21038;-54
2022/02/22 05:13:53;;;;;;;111.47;65.80;;;;;;;5.60;74.89;93347.41;1668715;85;21031;-57
2022/02/22 05:16:19;;;;;;;94.32;57.73;;;;;;;5.56;74.70;93353.58;1675266;83;21102;-57
2022/02/22 05:18:46;;;;;;;115.85;66.72;;;;;;;5.62;74.95;93353.17;1665660;85;21157;-55
2022/02/22 05:21:13;;;;;;;69.47;41.88;;;;;;;5.67;74.41;93356.66;1651178;84;21142;-56
2022/02/22 05:23:39;;;;;;;61.25;34.25;;;;;;;5.60;74.20;93362.41;1677374;84;21665;-56
2022/02/22 05:26:09;;;;;;;61.92;35.50;;;;;;;5.47;74.42;93370.69;1677341;85;21006;-57
2022/02/22 05:28:35;;;;;;;55.90;33.80;;;;;;;5.41;74.59;93366.27;1683714;83;20978;-63
2022/02/22 05:31:02;;;;;;;59.90;38.65;;;;;;;5.39;74.85;93373.52;1672701;84;21450;-63
2022/02/22 05:33:29;;;;;;;57.90;39.92;;;;;;;5.36;74.92;93371.69;1642507;85;21122;-64
2022/02/22 05:35:56;;;;;;;53.75;37.40;;;;;;;5.32;75.05;93373.02;1661827;83;20966;-60
2022/02/22 05:38:23;;;;;;;44.80;30.50;;;;;;;5.33;75.27;93377.27;1677292;83;21002;-50
2022/02/22 05:40:50;;;;;;;33.40;25.95;;;;;;;5.37;75.59;93381.38;1653063;85;21462;-51
2022/02/22 05:43:17;;;;;;;20.43;15.75;;;;;;;5.43;75.22;93373.39;1661705;85;21164;-52
2022/02/22 05:45:43;;;;;;;28.65;19.73;;;;;;;5.39;75.01;93382.31;1682217;85;20973;-57
2022/02/22 05:48:10;;;;;;;22.75;16.57;;;;;;;5.33;75.30;93383.48;1684060;84;21133;-57
2022/02/22 05:50:38;;;;;;;30.17;18.60;;;;;;;5.43;75.59;93399.30;1672043;85;21016;-55
2022/02/22 05:53:06;;;;;;;25.80;16.62;;;;;;;5.45;75.05;93396.88;1679081;85;20985;-57
2022/02/22 05:55:33;;;;;;;32.40;20.90;;;;;;;5.41;75.02;93410.63;1667661;85;21218;-58
2022/02/22 05:57:59;;;;;;;33.85;20.27;;;;;;;5.46;75.00;93409.30;1658971;85;21205;-56
2022/02/22 06:00:26;;;;;;;35.70;25.12;;;;;;;5.45;74.75;93411.88;1653325;85;21013;-59
2022/02/22 06:02:52;;;;;;;27.15;19.00;;;;;;;5.41;75.03;93413.98;1658398;85;21095;-58
2022/02/22 06:05:19;;;;;;;27.20;18.07;;;;;;;5.46;75.27;93415.50;1677719;84;21111;-59
2022/02/22 06:07:46;;;;;;;25.08;17.12;;;;;;;5.50;74.85;93418.11;1676222;84;21157;-58
2022/02/22 06:10:15;;;;;;;22.60;15.50;;;;;;;5.51;75.11;93421.77;1671378;85;21052;-58
2022/02/22 06:12:45;;;;;;;24.87;16.90;;;;;;;5.55;74.61;93427.84;1661128;85;21491;-58
2022/02/22 06:15:15;;;;;;;32.67;19.73;;;;;;;5.57;74.66;93428.77;1655861;85;21060;-60
2022/02/22 06:17:44;;;;;;;30.43;19.52;;;;;;;5.60;74.67;93437.42;1676907;83;21611;-58
2022/02/22 06:20:13;;;;;;;27.20;18.42;;;;;;;5.69;74.75;93442.31;1683650;83;21199;-59
2022/02/22 06:22:39;;;;;;;37.15;22.80;;;;;;;5.82;74.19;93444.98;1683217;83;21038;-60
2022/02/22 06:25:08;;;;;;;44.63;24.98;;;;;;;5.85;73.83;93453.03;1684419;83;21589;-59
2022/02/22 06:27:48;;;;;;;47.33;26.70;;;;;;;5.84;73.65;93457.56;1684330;83;21448;-57
2022/02/22 06:30:15;;;;;;;52.85;28.23;;;;;;;5.81;73.87;93459.83;1668018;83;21010;-59
2022/02/22 06:32:42;;;;;;;36.98;22.48;;;;;;;5.79;73.73;93455.42;1685931;83;21187;-58
2022/02/22 06:35:10;;;;;;;38.92;19.82;;;;;;;5.74;73.56;93464.14;1714636;82;21122;-58
2022/02/22 06:37:37;;;;;;;29.87;18.70;;;;;;;5.68;73.92;93465.94;1688038;82;21533;-59
2022/02/22 06:40:06;;;;;;;30.90;20.97;;;;;;;5.66;73.84;93470.49;1675013;83;20983;-59
2022/02/22 06:42:35;;;;;;;38.58;26.50;;;;;;;5.66;74.20;93471.08;1687143;83;21020;-57
2022/02/22 06:45:04;;;;;;;49.08;31.15;;;;;;;5.66;73.87;93464.26;1688155;83;21831;-56
2022/02/22 06:47:32;;;;;;;38.38;26.62;;;;;;;5.58;74.15;93469.84;1670748;83;21044;-60
2022/02/22 06:49:58;;;;;;;46.18;28.83;;;;;;;5.58;74.24;93469.84;1668176;83;21125;-57
2022/02/22 06:52:25;;;;;;;47.62;30.32;;;;;;;5.62;74.54;93482.73;1659013;84;21002;-57
2022/02/22 06:54:52;;;;;;;27.82;19.67;;;;;;;5.69;74.39;93477.00;1684212;83;21069;-58
2022/02/22 06:57:18;;;;;;;18.23;13.65;;;;;;;5.75;74.30;93484.78;1656321;83;21136;-58
2022/02/22 06:59:45;;;;;;;20.02;13.38;;;;;;;5.71;73.73;93479.45;1658966;83;21648;-58
2022/02/22 07:02:12;;;;;;;25.37;19.82;;;;;;;5.65;73.85;93481.84;1665702;83;21235;-56
2022/02/22 07:04:38;;;;;;;17.27;13.85;;;;;;;5.62;73.93;93480.01;1681691;83;21099;-64
2022/02/22 07:07:06;;;;;;;19.55;12.43;;;;;;;5.66;73.83;93482.77;1664800;84;21046;-59
2022/02/22 07:09:33;;;;;;;20.40;13.78;;;;;;;5.70;73.57;93486.70;1688676;83;21135;-55
2022/02/22 07:12:00;;;;;;;22.98;16.23;;;;;;;5.66;73.50;93486.86;1678087;84;21038;-63
2022/02/22 07:14:27;;;;;;;21.77;15.55;;;;;;;5.65;73.57;93479.11;1702525;83;21057;-61
2022/02/22 07:16:58;;;;;;;16.87;13.62;;;;;;;5.70;73.61;93483.98;1686893;83;21637;-61
2022/02/22 07:19:25;;;;;;;22.00;15.58;;;;;;;5.75;73.64;93487.52;1683709;83;21066;-61
2022/02/22 07:21:52;;;;;;;23.85;14.47;;;;;;;5.76;73.56;93483.58;1661530;83;21169;-61
2022/02/22 07:24:19;;;;;;;18.32;12.88;;;;;;;5.82;73.34;93485.28;1689661;83;21407;-62
2022/02/22 07:26:45;;;;;;;18.50;13.35;;;;;;;5.81;73.15;93484.39;1690508;83;21106;-59
2022/02/22 07:29:13;;;;;;;22.98;15.58;;;;;;;5.75;73.16;93484.78;1692084;83;21060;-60
2022/02/22 07:31:40;;;;;;;32.73;20.30;;;;;;;5.77;73.33;93486.46;1630715;86;22447;-60
2022/02/22 07:34:08;;;;;;;63.08;36.13;;;;;;;5.86;73.03;93491.98;1691996;83;21324;-61
2022/02/22 07:36:37;;;;;;;61.85;37.10;;;;;;;6.00;73.07;93494.19;1664348;84;21641;-59
2022/02/22 07:39:05;;;;;;;87.90;51.00;;;;;;;6.19;72.94;93493.05;1646920;85;20996;-59
2022/02/22 07:41:32;;;;;;;40.30;25.90;;;;;;;6.43;72.59;93491.30;1667902;83;21028;-58
2022/02/22 07:43:58;;;;;;;24.50;17.52;;;;;;;6.63;72.25;93497.13;1655990;83;21137;-59
2022/02/22 07:46:25;;;;;;;41.42;24.35;;;;;;;6.78;71.52;93500.81;1656254;84;21152;-59
2022/02/22 07:48:51;;;;;;;23.30;15.80;;;;;;;6.94;70.77;93511.47;1653135;85;21068;-59
2022/02/22 07:51:20;;;;;;;20.90;16.52;;;;;;;7.05;70.10;93517.27;1678939;83;21100;-59
2022/02/22 07:53:47;;;;;;;16.00;13.08;;;;;;;7.17;69.02;93514.39;1655241;83;21037;-57
2022/02/22 07:56:16;;;;;;;16.57;11.97;;;;;;;7.18;68.42;93516.66;1682963;83;21073;-57
2022/02/22 07:58:43;;;;;;;15.60;11.93;;;;;;;7.12;68.15;93519.10;1626990;86;21158;-57
2022/02/22 08:01:11;;;;;;;15.63;12.37;;;;;;;7.02;68.24;93518.16;1678221;83;21045;-57
2022/02/22 08:03:39;;;;;;;15.63;12.88;;;;;;;6.91;68.35;93517.84;1681690;84;21103;-54
2022/02/22 08:06:06;;;;;;;16.52;12.73;;;;;;;6.84;67.99;93520.85;1659581;83;21738;-54
2022/02/22 08:08:32;;;;;;;19.70;14.93;;;;;;;6.74;68.07;93518.70;1664463;84;20943;-56
2022/02/22 08:10:59;;;;;;;20.12;15.70;;;;;;;6.66;68.37;93523.57;1680469;83;21156;-58
2022/02/22 08:13:26;;;;;;;19.75;14.73;;;;;;;6.58;68.45;93521.72;1690739;83;21530;-56
2022/02/22 08:15:52;;;;;;;18.45;13.28;;;;;;;6.60;68.82;93525.36;1680596;83;21037;-57
2022/02/22 08:18:19;;;;;;;13.83;11.88;;;;;;;6.66;68.39;93518.11;1660032;83;21049;-59
2022/02/22 08:20:45;;;;;;;16.37;12.00;;;;;;;6.70;68.10;93515.98;1689319;83;21095;-59
2022/02/22 08:23:14;;;;;;;14.60;11.25;;;;;;;6.78;67.49;93523.45;1671505;83;21310;-59
2022/02/22 08:25:42;;;;;;;21.33;16.17;;;;;;;6.81;67.01;93525.27;1689147;83;21030;-57
2022/02/22 08:28:10;;;;;;;15.55;12.35;;;;;;;6.87;67.03;93529.54;1693284;83;21096;-60
2022/02/22 08:30:38;;;;;;;16.02;13.30;;;;;;;6.97;66.88;93535.16;1668101;83;20989;-59
2022/02/22 08:33:08;;;;;;;16.05;12.35;;;;;;;7.03;66.47;93532.75;1671960;83;21226;-59
2022/02/22 08:35:35;;;;;;;14.60;11.18;;;;;;;7.10;66.01;93529.11;1652846;83;21884;-55
2022/02/22 08:38:02;;;;;;;11.45;9.55;;;;;;;7.12;65.26;93534.89;1690872;82;21101;-62
2022/02/22 08:40:29;;;;;;;12.58;9.45;;;;;;;7.11;64.28;93529.86;1681877;83;21117;-59
2022/02/22 08:42:56;;;;;;;14.75;10.63;;;;;;;7.14;63.76;93532.45;1666672;83;21561;-58
2022/02/22 08:45:24;;;;;;;13.03;9.45;;;;;;;7.12;63.71;93538.98;1699752;83;21350;-58
2022/02/22 08:47:51;;;;;;;13.65;10.45;;;;;;;7.09;63.79;93545.37;1684952;83;21160;-58
2022/02/22 08:50:20;;;;;;;13.75;10.40;;;;;;;7.08;63.93;93549.17;1685671;83;21550;-60
2022/02/22 08:52:46;;;;;;;13.43;10.03;;;;;;;7.20;63.66;93558.00;1666919;83;21013;-57
2022/02/22 08:55:13;;;;;;;13.28;9.23;;;;;;;7.30;63.36;93560.14;1683954;82;21049;-59
2022/02/22 08:57:40;;;;;;;11.95;8.80;;;;;;;7.40;63.42;93558.33;1683710;83;21102;-56
2022/02/22 09:00:10;;;;;;;13.03;9.68;;;;;;;7.51;62.99;93565.45;1668357;84;21138;-59
2022/02/22 09:02:38;;;;;;;11.12;8.75;;;;;;;7.61;62.49;93566.22;1687397;84;21103;-57
2022/02/22 09:05:07;;;;;;;9.63;7.70;;;;;;;7.70;60.78;93577.92;1682663;83;21055;-62
2022/02/22 09:07:35;;;;;;;13.40;10.08;;;;;;;7.78;59.45;93568.20;1702447;82;21018;-60
2022/02/22 09:10:04;;;;;;;12.30;8.83;;;;;;;7.79;59.50;93586.14;1655689;84;38457;-58
2022/02/22 09:12:33;;;;;;;11.15;8.28;;;;;;;7.87;58.57;93582.49;1656129;83;21163;-58
2022/02/22 09:15:02;;;;;;;12.68;7.70;;;;;;;8.00;57.56;93590.69;1663510;84;21044;-58
2022/02/22 09:17:40;;;;;;;9.33;7.28;;;;;;;8.13;57.02;93581.70;1676242;83;21128;-58
2022/02/22 09:20:10;;;;;;;12.35;7.50;;;;;;;8.32;56.21;93591.43;1655883;83;21067;-58
2022/02/22 09:22:37;;;;;;;5.50;5.00;;;;;;;8.70;56.51;93592.98;1694074;83;21916;-59
2022/02/22 09:25:06;;;;;;;4.53;4.12;;;;;;;9.06;50.25;93592.20;1683823;83;21839;-59
2022/02/22 09:27:33;;;;;;;4.45;3.22;;;;;;;9.41;48.20;93586.99;1673592;83;21195;-58
2022/02/22 09:30:00;;;;;;;4.05;3.40;;;;;;;9.64;45.14;93588.96;1681469;83;21065;-56
2022/02/22 09:32:27;;;;;;;4.30;3.30;;;;;;;9.77;44.81;93589.48;1681126;83;21084;-60
2022/02/22 09:34:54;;;;;;;3.42;3.12;;;;;;;9.82;42.32;93586.83;1681850;83;21176;-59
2022/02/22 09:37:21;;;;;;;4.67;3.02;;;;;;;9.86;40.97;93588.02;1682730;83;21140;-58
2022/02/22 09:39:47;;;;;;;3.08;2.83;;;;;;;9.90;39.75;93594.09;1690359;83;21533;-60
2022/02/22 09:42:15;;;;;;;6.12;3.27;;;;;;;9.93;38.95;93584.91;1676910;83;21086;-57
2022/02/22 09:44:43;;;;;;;6.03;3.33;;;;;;;10.01;39.49;93592.94;1685505;83;21541;-64
2022/02/22 09:47:10;;;;;;;4.80;2.92;;;;;;;10.14;39.89;93586.61;1683276;83;21064;-60
2022/02/22 09:49:37;;;;;;;9.40;5.83;;;;;;;10.21;38.88;93594.47;1688644;83;21165;-61
2022/02/22 09:52:05;;;;;;;6.47;5.78;;;;;;;10.34;38.38;93593.59;1641858;85;21362;-59
2022/02/22 09:54:33;;;;;;;4.58;3.50;;;;;;;10.53;39.03;93592.17;1685854;83;21026;-58
2022/02/22 09:57:00;;;;;;;3.58;3.27;;;;;;;10.82;38.88;93595.66;1678831;82;21005;-58
2022/02/22 09:59:27;;;;;;;5.00;3.10;;;;;;;11.02;37.60;93597.84;1687636;83;21077;-59
2022/02/22 10:01:55;;;;;;;8.98;3.22;;;;;;;11.15;38.47;93599.67;1688773;83;21129;-57
2022/02/22 10:04:25;;;;;;;7.85;3.37;;;;;;;11.42;38.49;93597.95;1684375;83;21051;-58
2022/02/22 10:07:04;;;;;;;3.90;2.90;;;;;;;11.76;37.72;93592.28;1678778;83;21029;-60
2022/02/22 10:09:31;;;;;;;6.87;3.47;;;;;;;12.10;37.10;93587.31;1682842;83;21059;-59
2022/02/22 10:12:00;;;;;;;5.90;2.45;;;;;;;12.65;36.57;93595.52;1689782;83;21077;-61
2022/02/22 10:14:29;;;;;;;4.90;2.58;;;;;;;13.14;35.20;93585.55;1684074;83;21158;-61
2022/02/22 10:16:57;;;;;;;100.75;8.50;;;;;;;13.61;34.03;93595.91;1687894;83;22639;-60
2022/02/22 10:19:28;;;;;;;20.62;2.95;;;;;;;13.94;33.73;93600.20;1682262;83;21030;-59
2022/02/22 10:21:56;;;;;;;12.50;2.72;;;;;;;14.02;33.09;93597.86;1695933;82;21145;-59
2022/02/22 10:24:28;;;;;;;3.90;2.10;;;;;;;14.13;32.57;93595.15;1694614;83;21133;-60
2022/02/22 10:27:08;;;;;;;5.03;2.42;;;;;;;14.25;33.38;93595.36;1666388;85;21902;-60
2022/02/22 10:29:36;;;;;;;16.12;3.85;;;;;;;14.65;32.51;93597.72;1689836;83;21030;-58
2022/02/22 10:32:15;;;;;;;24.95;3.35;;;;;;;15.12;32.33;93602.28;1694486;83;21097;-58
2022/02/22 10:34:42;;;;;;;6.75;2.77;;;;;;;15.71;31.46;93606.30;1668626;83;21628;-63
2022/02/22 10:37:09;;;;;;;4.37;2.55;;;;;;;16.26;29.68;93608.17;1679663;83;21070;-56
2022/02/22 10:39:36;;;;;;;5.62;2.08;;;;;;;16.65;28.80;93592.84;1659442;84;21156;-57
2022/02/22 10:42:04;;;;;;;4.03;2.20;;;;;;;16.90;28.14;93591.05;1672582;83;21835;-59
2022/02/22 10:44:35;;;;;;;2.92;2.50;;;;;;;17.32;28.11;93593.90;1690502;83;21514;-60
2022/02/22 10:47:11;;;;;;;2.45;1.72;;;;;;;17.92;27.75;93593.37;1676467;83;21023;-59
2022/02/22 10:49:37;;;;;;;4.28;1.92;;;;;;;18.21;26.36;93596.07;1678045;83;21574;-61
2022/02/22 10:52:08;;;;;;;6.45;2.80;;;;;;;18.22;26.73;93597.58;1664418;85;21204;-59
2022/02/22 10:54:36;;;;;;;4.95;2.30;;;;;;;18.22;26.23;93597.58;1625312;87;21128;-57
2022/02/22 10:57:03;;;;;;;10.68;2.02;;;;;;;18.25;25.87;93598.57;1612639;86;21123;-60
2022/02/22 10:59:31;;;;;;;6.67;1.80;;;;;;;18.41;24.97;93599.78;1638484;86;21129;-60
2022/02/22 11:01:59;;;;;;;2.95;1.82;;;;;;;18.56;24.48;93593.14;1690372;83;21159;-60
2022/02/22 11:04:27;;;;;;;4.28;1.40;;;;;;;18.72;24.44;93594.95;1674045;83;21849;-61
2022/02/22 11:06:53;;;;;;;6.42;1.65;;;;;;;18.80;23.71;93595.84;1688852;82;21116;-59
2022/02/22 11:09:21;;;;;;;16.75;2.72;;;;;;;18.99;23.25;93591.67;1671801;83;21541;-58
2022/02/22 11:12:06;;;;;;;2.35;1.62;;;;;;;19.14;24.47;93594.09;1668014;83;21540;-61
2022/02/22 11:14:35;;;;;;;5.83;2.45;;;;;;;19.32;23.85;93598.91;1688568;83;21525;-62
2022/02/22 11:17:20;;;;;;;17.65;3.60;;;;;;;19.55;23.82;93590.95;1691445;83;21828;-61
2022/02/22 11:19:47;;;;;;;7.37;2.10;;;;;;;19.92;23.32;93602.70;1694066;83;21008;-59
2022/02/22 11:22:23;;;;;;;7.95;2.80;;;;;;;20.13;23.35;93597.30;1642014;84;21168;-61
2022/02/22 11:24:57;;;;;;;8.63;2.80;;;;;;;20.35;23.44;93592.78;1669523;83;21096;-59
2022/02/22 11:27:29;;;;;;;3.67;1.80;;;;;;;20.60;23.21;93593.30;1700129;83;21496;-60
2022/02/22 11:30:07;;;;;;;2.20;1.53;;;;;;;20.72;22.21;93595.98;1673742;83;21639;-59